Terminal Aerodrome Forecast
Issued by NWS New Orleans/Baton Rouge, LA

Home | Current Version | Previous Version | Text Only | Print | Product List | Glossary On
Versions: 1 2 3 4 5 6 7 8 9 10 11 12 13 14 15 16 17 18 19 20 21 22 23
000
FTUS44 KLIX 291700 RRA
TAFNEW
TAF
KNEW 291741Z 2918/3018 11009KT P6SM VCSH BKN030 BKN050
      TEMPO 2918/2922 VRB15G25KT 3SM TSRA SCT030CB BKN040
     FM300600 15009KT P6SM BKN025=

USA.gov is the U.S. government's official web portal to all federal, state and local government web resources and services.